sensor_id;sensor_type;location;lat;lon;timestamp;temperature;humidity
33827;DHT22;20128;45.582;5.298;2023-06-22T00:00:43;25.00;74.90
33827;DHT22;20128;45.582;5.298;2023-06-22T00:03:10;25.00;74.90
33827;DHT22;20128;45.582;5.298;2023-06-22T00:05:35;25.00;74.90
33827;DHT22;20128;45.582;5.298;2023-06-22T00:08:04;25.10;74.80
33827;DHT22;20128;45.582;5.298;2023-06-22T00:10:30;25.10;74.40
33827;DHT22;20128;45.582;5.298;2023-06-22T00:12:56;25.10;74.30
33827;DHT22;20128;45.582;5.298;2023-06-22T00:15:22;25.10;74.20
33827;DHT22;20128;45.582;5.298;2023-06-22T00:17:49;25.10;74.80
33827;DHT22;20128;45.582;5.298;2023-06-22T00:20:15;25.10;74.00
33827;DHT22;20128;45.582;5.298;2023-06-22T00:22:42;25.00;73.80
33827;DHT22;20128;45.582;5.298;2023-06-22T00:25:08;25.00;74.20
33827;DHT22;20128;45.582;5.298;2023-06-22T00:27:35;24.90;74.40
33827;DHT22;20128;45.582;5.298;2023-06-22T00:30:00;24.90;74.70
33827;DHT22;20128;45.582;5.298;2023-06-22T00:32:26;24.80;75.00
33827;DHT22;20128;45.582;5.298;2023-06-22T00:34:52;24.80;74.90
33827;DHT22;20128;45.582;5.298;2023-06-22T00:37:18;24.80;75.00
33827;DHT22;20128;45.582;5.298;2023-06-22T00:39:44;24.80;75.60
33827;DHT22;20128;45.582;5.298;2023-06-22T00:42:09;24.70;74.80
33827;DHT22;20128;45.582;5.298;2023-06-22T00:44:36;24.60;75.70
33827;DHT22;20128;45.582;5.298;2023-06-22T00:47:02;24.60;75.10
33827;DHT22;20128;45.582;5.298;2023-06-22T00:49:28;24.60;75.10
33827;DHT22;20128;45.582;5.298;2023-06-22T00:51:55;24.60;74.90
33827;DHT22;20128;45.582;5.298;2023-06-22T00:54:21;24.70;75.00
33827;DHT22;20128;45.582;5.298;2023-06-22T00:56:59;24.60;74.80
33827;DHT22;20128;45.582;5.298;2023-06-22T00:59:25;24.60;74.70
33827;DHT22;20128;45.582;5.298;2023-06-22T01:01:51;24.50;74.60
33827;DHT22;20128;45.582;5.298;2023-06-22T01:04:17;24.50;74.40
33827;DHT22;20128;45.582;5.298;2023-06-22T01:09:47;23.80;75.30
33827;DHT22;20128;45.582;5.298;2023-06-22T01:12:16;23.60;76.60
33827;DHT22;20128;45.582;5.298;2023-06-22T01:14:57;23.50;77.10
33827;DHT22;20128;45.582;5.298;2023-06-22T01:17:24;23.40;77.70
33827;DHT22;20128;45.582;5.298;2023-06-22T01:19:51;23.20;78.30
33827;DHT22;20128;45.582;5.298;2023-06-22T01:22:24;23.30;78.60
33827;DHT22;20128;45.582;5.298;2023-06-22T01:25:12;23.40;78.40
33827;DHT22;20128;45.582;5.298;2023-06-22T01:27:56;23.50;78.80
33827;DHT22;20128;45.582;5.298;2023-06-22T01:30:28;23.60;78.10
33827;DHT22;20128;45.582;5.298;2023-06-22T01:32:57;23.60;77.50
33827;DHT22;20128;45.582;5.298;2023-06-22T01:35:24;23.40;77.20
33827;DHT22;20128;45.582;5.298;2023-06-22T01:37:51;23.30;77.60
33827;DHT22;20128;45.582;5.298;2023-06-22T01:40:16;23.40;77.40
33827;DHT22;20128;45.582;5.298;2023-06-22T01:42:44;23.50;77.00
33827;DHT22;20128;45.582;5.298;2023-06-22T01:45:11;23.50;76.80
33827;DHT22;20128;45.582;5.298;2023-06-22T01:47:37;23.60;76.80
33827;DHT22;20128;45.582;5.298;2023-06-22T01:50:03;23.70;77.00
33827;DHT22;20128;45.582;5.298;2023-06-22T01:52:29;23.80;76.70
33827;DHT22;20128;45.582;5.298;2023-06-22T01:54:55;23.80;76.60
33827;DHT22;20128;45.582;5.298;2023-06-22T01:57:23;23.80;76.60
33827;DHT22;20128;45.582;5.298;2023-06-22T02:00:04;23.70;76.50
33827;DHT22;20128;45.582;5.298;2023-06-22T02:02:59;23.80;76.20
33827;DHT22;20128;45.582;5.298;2023-06-22T02:05:36;23.80;75.60
33827;DHT22;20128;45.582;5.298;2023-06-22T02:08:08;23.70;75.90
33827;DHT22;20128;45.582;5.298;2023-06-22T02:10:36;23.80;76.40
33827;DHT22;20128;45.582;5.298;2023-06-22T02:13:06;23.70;76.10
33827;DHT22;20128;45.582;5.298;2023-06-22T02:15:32;23.80;76.20
33827;DHT22;20128;45.582;5.298;2023-06-22T02:17:59;23.80;75.90
33827;DHT22;20128;45.582;5.298;2023-06-22T02:20:25;23.70;75.80
33827;DHT22;20128;45.582;5.298;2023-06-22T02:22:50;23.70;75.90
33827;DHT22;20128;45.582;5.298;2023-06-22T02:25:16;23.60;75.80
33827;DHT22;20128;45.582;5.298;2023-06-22T02:27:42;23.60;75.90
33827;DHT22;20128;45.582;5.298;2023-06-22T02:30:10;23.50;76.00
33827;DHT22;20128;45.582;5.298;2023-06-22T02:32:36;23.50;76.30
33827;DHT22;20128;45.582;5.298;2023-06-22T02:35:02;23.50;76.30
33827;DHT22;20128;45.582;5.298;2023-06-22T02:37:32;23.50;76.30
33827;DHT22;20128;45.582;5.298;2023-06-22T02:39:58;23.50;76.60
33827;DHT22;20128;45.582;5.298;2023-06-22T02:42:23;23.50;76.70
33827;DHT22;20128;45.582;5.298;2023-06-22T02:44:49;23.50;77.00
33827;DHT22;20128;45.582;5.298;2023-06-22T02:47:15;23.50;76.70
33827;DHT22;20128;45.582;5.298;2023-06-22T02:49:41;23.50;76.10
33827;DHT22;20128;45.582;5.298;2023-06-22T02:52:07;23.50;76.20
33827;DHT22;20128;45.582;5.298;2023-06-22T02:54:33;23.50;77.30
33827;DHT22;20128;45.582;5.298;2023-06-22T02:56:59;23.40;76.70
33827;DHT22;20128;45.582;5.298;2023-06-22T02:59:28;23.20;77.00
33827;DHT22;20128;45.582;5.298;2023-06-22T03:01:54;23.00;77.70
33827;DHT22;20128;45.582;5.298;2023-06-22T03:04:19;22.80;78.50
33827;DHT22;20128;45.582;5.298;2023-06-22T03:06:45;22.90;78.90
33827;DHT22;20128;45.582;5.298;2023-06-22T03:09:16;23.00;78.90
33827;DHT22;20128;45.582;5.298;2023-06-22T03:11:42;22.90;78.40
33827;DHT22;20128;45.582;5.298;2023-06-22T03:14:08;22.70;78.40
33827;DHT22;20128;45.582;5.298;2023-06-22T03:16:33;22.40;79.00
33827;DHT22;20128;45.582;5.298;2023-06-22T03:18:59;22.20;79.80
33827;DHT22;20128;45.582;5.298;2023-06-22T03:21:28;22.10;80.00
33827;DHT22;20128;45.582;5.298;2023-06-22T03:23:54;22.20;80.10
33827;DHT22;20128;45.582;5.298;2023-06-22T03:26:20;22.30;80.80
33827;DHT22;20128;45.582;5.298;2023-06-22T03:28:46;22.40;80.00
33827;DHT22;20128;45.582;5.298;2023-06-22T03:31:12;22.50;79.60
33827;DHT22;20128;45.582;5.298;2023-06-22T03:33:37;22.50;79.30
33827;DHT22;20128;45.582;5.298;2023-06-22T03:36:03;22.40;79.20
33827;DHT22;20128;45.582;5.298;2023-06-22T03:38:29;22.30;79.50
33827;DHT22;20128;45.582;5.298;2023-06-22T03:40:55;22.00;80.70
33827;DHT22;20128;45.582;5.298;2023-06-22T03:43:20;21.80;82.50
33827;DHT22;20128;45.582;5.298;2023-06-22T03:45:46;21.70;83.30
33827;DHT22;20128;45.582;5.298;2023-06-22T03:48:12;21.80;83.50
33827;DHT22;20128;45.582;5.298;2023-06-22T03:50:38;21.60;83.40
33827;DHT22;20128;45.582;5.298;2023-06-22T03:53:03;21.40;83.80
33827;DHT22;20128;45.582;5.298;2023-06-22T03:55:29;21.30;84.10
33827;DHT22;20128;45.582;5.298;2023-06-22T03:57:55;21.30;84.00
33827;DHT22;20128;45.582;5.298;2023-06-22T04:00:23;21.40;83.80
33827;DHT22;20128;45.582;5.298;2023-06-22T04:02:49;21.60;83.80
33827;DHT22;20128;45.582;5.298;2023-06-22T04:05:15;21.70;83.10
33827;DHT22;20128;45.582;5.298;2023-06-22T04:07:42;21.70;82.90
33827;DHT22;20128;45.582;5.298;2023-06-22T04:10:08;21.80;83.00
33827;DHT22;20128;45.582;5.298;2023-06-22T04:12:34;21.90;82.70
33827;DHT22;20128;45.582;5.298;2023-06-22T04:15:00;22.00;82.70
33827;DHT22;20128;45.582;5.298;2023-06-22T04:17:25;22.00;82.60
33827;DHT22;20128;45.582;5.298;2023-06-22T04:19:51;22.10;82.90
33827;DHT22;20128;45.582;5.298;2023-06-22T04:22:17;22.20;82.90
33827;DHT22;20128;45.582;5.298;2023-06-22T04:24:43;22.30;82.60
33827;DHT22;20128;45.582;5.298;2023-06-22T04:27:09;22.30;82.30
33827;DHT22;20128;45.582;5.298;2023-06-22T04:29:34;22.40;82.30
33827;DHT22;20128;45.582;5.298;2023-06-22T04:32:00;22.50;81.90
33827;DHT22;20128;45.582;5.298;2023-06-22T04:34:30;22.60;81.70
33827;DHT22;20128;45.582;5.298;2023-06-22T04:36:56;22.70;81.60
33827;DHT22;20128;45.582;5.298;2023-06-22T04:39:22;22.70;81.50
33827;DHT22;20128;45.582;5.298;2023-06-22T04:41:47;22.80;81.40
33827;DHT22;20128;45.582;5.298;2023-06-22T04:44:14;22.80;81.10
33827;DHT22;20128;45.582;5.298;2023-06-22T04:46:50;22.80;81.00
33827;DHT22;20128;45.582;5.298;2023-06-22T04:49:20;22.70;81.10
33827;DHT22;20128;45.582;5.298;2023-06-22T04:51:45;22.60;81.30
33827;DHT22;20128;45.582;5.298;2023-06-22T04:54:11;22.60;81.60
33827;DHT22;20128;45.582;5.298;2023-06-22T04:56:37;22.50;81.80
33827;DHT22;20128;45.582;5.298;2023-06-22T04:59:03;22.40;82.10
33827;DHT22;20128;45.582;5.298;2023-06-22T05:01:29;22.20;82.80
33827;DHT22;20128;45.582;5.298;2023-06-22T05:03:56;21.90;83.80
33827;DHT22;20128;45.582;5.298;2023-06-22T05:06:23;21.80;84.40
33827;DHT22;20128;45.582;5.298;2023-06-22T05:08:56;21.70;84.80
33827;DHT22;20128;45.582;5.298;2023-06-22T05:11:25;21.60;85.00
33827;DHT22;20128;45.582;5.298;2023-06-22T05:13:51;21.70;85.20
33827;DHT22;20128;45.582;5.298;2023-06-22T05:16:17;21.70;85.00
33827;DHT22;20128;45.582;5.298;2023-06-22T05:18:43;21.60;85.30
33827;DHT22;20128;45.582;5.298;2023-06-22T05:21:09;21.60;85.50
33827;DHT22;20128;45.582;5.298;2023-06-22T05:23:34;21.60;85.80
33827;DHT22;20128;45.582;5.298;2023-06-22T05:26:00;21.60;85.80
33827;DHT22;20128;45.582;5.298;2023-06-22T05:28:26;21.50;86.10
33827;DHT22;20128;45.582;5.298;2023-06-22T05:30:52;21.40;86.50
33827;DHT22;20128;45.582;5.298;2023-06-22T05:33:17;21.40;86.90
33827;DHT22;20128;45.582;5.298;2023-06-22T05:35:43;21.40;87.30
33827;DHT22;20128;45.582;5.298;2023-06-22T05:38:08;21.40;87.30
33827;DHT22;20128;45.582;5.298;2023-06-22T05:40:34;21.40;87.40
33827;DHT22;20128;45.582;5.298;2023-06-22T05:43:00;21.40;87.40
33827;DHT22;20128;45.582;5.298;2023-06-22T05:45:27;21.50;87.50
33827;DHT22;20128;45.582;5.298;2023-06-22T05:47:52;21.70;87.30
33827;DHT22;20128;45.582;5.298;2023-06-22T05:50:18;21.90;86.90
33827;DHT22;20128;45.582;5.298;2023-06-22T05:52:44;22.00;86.40
33827;DHT22;20128;45.582;5.298;2023-06-22T05:55:09;22.20;86.10
33827;DHT22;20128;45.582;5.298;2023-06-22T05:57:35;22.30;86.00
33827;DHT22;20128;45.582;5.298;2023-06-22T06:00:01;22.30;85.70
33827;DHT22;20128;45.582;5.298;2023-06-22T06:02:26;22.30;85.80
33827;DHT22;20128;45.582;5.298;2023-06-22T06:04:52;22.30;86.10
33827;DHT22;20128;45.582;5.298;2023-06-22T06:07:18;22.30;86.30
33827;DHT22;20128;45.582;5.298;2023-06-22T06:09:44;22.30;86.40
33827;DHT22;20128;45.582;5.298;2023-06-22T06:12:09;22.40;86.40
33827;DHT22;20128;45.582;5.298;2023-06-22T06:14:35;22.40;86.50
33827;DHT22;20128;45.582;5.298;2023-06-22T06:17:00;22.40;86.70
33827;DHT22;20128;45.582;5.298;2023-06-22T06:19:26;22.40;86.70
33827;DHT22;20128;45.582;5.298;2023-06-22T06:21:52;22.60;86.60
33827;DHT22;20128;45.582;5.298;2023-06-22T06:24:17;22.70;86.60
33827;DHT22;20128;45.582;5.298;2023-06-22T06:26:43;22.70;87.00
33827;DHT22;20128;45.582;5.298;2023-06-22T06:29:09;22.70;86.90
33827;DHT22;20128;45.582;5.298;2023-06-22T06:31:34;22.70;86.80
33827;DHT22;20128;45.582;5.298;2023-06-22T06:34:00;22.70;86.80
33827;DHT22;20128;45.582;5.298;2023-06-22T06:36:26;22.70;86.80
33827;DHT22;20128;45.582;5.298;2023-06-22T06:38:51;22.70;86.60
33827;DHT22;20128;45.582;5.298;2023-06-22T06:41:17;22.70;86.80
33827;DHT22;20128;45.582;5.298;2023-06-22T06:43:43;22.70;87.00
33827;DHT22;20128;45.582;5.298;2023-06-22T06:46:09;22.70;87.00
33827;DHT22;20128;45.582;5.298;2023-06-22T06:48:35;22.60;87.30
33827;DHT22;20128;45.582;5.298;2023-06-22T06:51:01;22.60;87.80
33827;DHT22;20128;45.582;5.298;2023-06-22T06:53:26;22.70;88.60
33827;DHT22;20128;45.582;5.298;2023-06-22T06:55:53;22.70;89.20
33827;DHT22;20128;45.582;5.298;2023-06-22T06:58:19;22.70;89.30
33827;DHT22;20128;45.582;5.298;2023-06-22T07:00:45;22.70;88.90
33827;DHT22;20128;45.582;5.298;2023-06-22T07:03:10;22.70;89.20
33827;DHT22;20128;45.582;5.298;2023-06-22T07:05:36;22.70;89.00
33827;DHT22;20128;45.582;5.298;2023-06-22T07:08:02;22.70;89.30
33827;DHT22;20128;45.582;5.298;2023-06-22T07:10:28;22.70;89.70
33827;DHT22;20128;45.582;5.298;2023-06-22T07:12:54;22.80;89.80
33827;DHT22;20128;45.582;5.298;2023-06-22T07:15:20;22.90;90.00
33827;DHT22;20128;45.582;5.298;2023-06-22T07:17:45;23.00;90.00
33827;DHT22;20128;45.582;5.298;2023-06-22T07:20:11;23.00;89.70
33827;DHT22;20128;45.582;5.298;2023-06-22T07:22:43;23.20;89.50
33827;DHT22;20128;45.582;5.298;2023-06-22T07:25:10;23.20;88.80
33827;DHT22;20128;45.582;5.298;2023-06-22T07:27:43;23.30;88.40
33827;DHT22;20128;45.582;5.298;2023-06-22T07:30:10;23.40;88.00
33827;DHT22;20128;45.582;5.298;2023-06-22T07:32:36;23.50;87.60
33827;DHT22;20128;45.582;5.298;2023-06-22T07:35:02;23.50;87.40
33827;DHT22;20128;45.582;5.298;2023-06-22T07:37:30;23.50;87.30
33827;DHT22;20128;45.582;5.298;2023-06-22T07:39:57;23.50;87.00
33827;DHT22;20128;45.582;5.298;2023-06-22T07:42:27;23.50;86.80
33827;DHT22;20128;45.582;5.298;2023-06-22T07:44:54;23.50;86.80
33827;DHT22;20128;45.582;5.298;2023-06-22T07:47:20;23.60;87.20
33827;DHT22;20128;45.582;5.298;2023-06-22T07:49:46;23.70;86.50
33827;DHT22;20128;45.582;5.298;2023-06-22T07:52:12;23.80;85.90
33827;DHT22;20128;45.582;5.298;2023-06-22T07:54:38;23.80;85.30
33827;DHT22;20128;45.582;5.298;2023-06-22T07:57:04;24.00;85.50
33827;DHT22;20128;45.582;5.298;2023-06-22T07:59:30;24.00;84.90
33827;DHT22;20128;45.582;5.298;2023-06-22T08:01:55;24.00;84.70
33827;DHT22;20128;45.582;5.298;2023-06-22T08:04:21;24.00;84.70
33827;DHT22;20128;45.582;5.298;2023-06-22T08:06:47;24.00;84.90
33827;DHT22;20128;45.582;5.298;2023-06-22T08:09:12;24.10;84.90
33827;DHT22;20128;45.582;5.298;2023-06-22T08:11:38;24.10;84.80
33827;DHT22;20128;45.582;5.298;2023-06-22T08:14:04;24.10;84.90
33827;DHT22;20128;45.582;5.298;2023-06-22T08:16:29;24.10;85.10
33827;DHT22;20128;45.582;5.298;2023-06-22T08:18:55;24.10;85.10
33827;DHT22;20128;45.582;5.298;2023-06-22T08:21:21;24.20;84.80
33827;DHT22;20128;45.582;5.298;2023-06-22T08:23:47;24.30;84.60
33827;DHT22;20128;45.582;5.298;2023-06-22T08:26:14;24.30;84.70
33827;DHT22;20128;45.582;5.298;2023-06-22T08:28:40;24.40;84.60
33827;DHT22;20128;45.582;5.298;2023-06-22T08:31:06;24.40;84.70
33827;DHT22;20128;45.582;5.298;2023-06-22T08:33:31;24.50;84.90
33827;DHT22;20128;45.582;5.298;2023-06-22T08:35:58;24.60;84.80
33827;DHT22;20128;45.582;5.298;2023-06-22T08:38:25;24.70;84.90
33827;DHT22;20128;45.582;5.298;2023-06-22T08:40:50;24.70;85.40
33827;DHT22;20128;45.582;5.298;2023-06-22T08:43:16;24.80;85.10
33827;DHT22;20128;45.582;5.298;2023-06-22T08:45:42;24.90;84.60
33827;DHT22;20128;45.582;5.298;2023-06-22T08:48:07;25.00;84.30
33827;DHT22;20128;45.582;5.298;2023-06-22T08:50:33;25.10;84.10
33827;DHT22;20128;45.582;5.298;2023-06-22T08:52:58;25.10;83.50
33827;DHT22;20128;45.582;5.298;2023-06-22T08:55:24;25.20;83.30
33827;DHT22;20128;45.582;5.298;2023-06-22T08:57:50;25.30;82.60
33827;DHT22;20128;45.582;5.298;2023-06-22T09:00:16;25.40;81.50
33827;DHT22;20128;45.582;5.298;2023-06-22T09:02:45;25.40;79.80
33827;DHT22;20128;45.582;5.298;2023-06-22T09:05:11;25.50;77.60
33827;DHT22;20128;45.582;5.298;2023-06-22T09:07:37;25.60;77.90
33827;DHT22;20128;45.582;5.298;2023-06-22T09:10:02;25.60;77.90
33827;DHT22;20128;45.582;5.298;2023-06-22T09:12:31;25.70;76.00
33827;DHT22;20128;45.582;5.298;2023-06-22T09:14:58;25.70;75.70
33827;DHT22;20128;45.582;5.298;2023-06-22T09:17:25;25.70;76.50
33827;DHT22;20128;45.582;5.298;2023-06-22T09:19:51;25.70;76.40
33827;DHT22;20128;45.582;5.298;2023-06-22T09:22:17;25.70;76.80
33827;DHT22;20128;45.582;5.298;2023-06-22T09:24:43;25.70;77.80
33827;DHT22;20128;45.582;5.298;2023-06-22T09:27:08;25.70;77.50
33827;DHT22;20128;45.582;5.298;2023-06-22T09:29:34;25.70;78.30
33827;DHT22;20128;45.582;5.298;2023-06-22T09:32:00;25.70;77.10
33827;DHT22;20128;45.582;5.298;2023-06-22T09:34:26;25.70;76.40
33827;DHT22;20128;45.582;5.298;2023-06-22T09:36:51;25.70;74.90
33827;DHT22;20128;45.582;5.298;2023-06-22T09:39:20;25.70;75.20
33827;DHT22;20128;45.582;5.298;2023-06-22T09:41:46;25.70;76.40
33827;DHT22;20128;45.582;5.298;2023-06-22T09:44:11;25.70;77.70
33827;DHT22;20128;45.582;5.298;2023-06-22T09:46:37;25.70;78.20
33827;DHT22;20128;45.582;5.298;2023-06-22T09:49:03;25.70;76.40
33827;DHT22;20128;45.582;5.298;2023-06-22T09:51:28;25.60;75.80
33827;DHT22;20128;45.582;5.298;2023-06-22T09:53:54;25.60;76.70
33827;DHT22;20128;45.582;5.298;2023-06-22T09:56:20;25.70;76.00
33827;DHT22;20128;45.582;5.298;2023-06-22T09:58:46;25.70;75.60
33827;DHT22;20128;45.582;5.298;2023-06-22T10:01:13;25.70;75.20
33827;DHT22;20128;45.582;5.298;2023-06-22T10:03:42;25.80;73.80
33827;DHT22;20128;45.582;5.298;2023-06-22T10:06:08;25.70;73.40
33827;DHT22;20128;45.582;5.298;2023-06-22T10:08:35;25.70;71.60
33827;DHT22;20128;45.582;5.298;2023-06-22T10:11:01;25.70;72.10
33827;DHT22;20128;45.582;5.298;2023-06-22T10:13:27;25.70;72.90
33827;DHT22;20128;45.582;5.298;2023-06-22T10:15:52;25.70;74.20
33827;DHT22;20128;45.582;5.298;2023-06-22T10:18:18;25.70;74.70
33827;DHT22;20128;45.582;5.298;2023-06-22T10:20:48;25.70;75.20
33827;DHT22;20128;45.582;5.298;2023-06-22T10:23:14;25.70;75.50
33827;DHT22;20128;45.582;5.298;2023-06-22T10:25:40;25.70;76.10
33827;DHT22;20128;45.582;5.298;2023-06-22T10:28:05;25.70;76.80
33827;DHT22;20128;45.582;5.298;2023-06-22T10:30:31;25.60;77.60
33827;DHT22;20128;45.582;5.298;2023-06-22T10:32:56;25.70;78.60
33827;DHT22;20128;45.582;5.298;2023-06-22T10:35:22;25.70;79.10
33827;DHT22;20128;45.582;5.298;2023-06-22T10:37:48;25.70;79.20
33827;DHT22;20128;45.582;5.298;2023-06-22T10:40:15;25.70;79.80
33827;DHT22;20128;45.582;5.298;2023-06-22T10:42:41;25.80;79.70
33827;DHT22;20128;45.582;5.298;2023-06-22T10:45:08;25.90;80.20
33827;DHT22;20128;45.582;5.298;2023-06-22T10:47:34;26.00;79.80
33827;DHT22;20128;45.582;5.298;2023-06-22T10:49:59;26.00;77.80
33827;DHT22;20128;45.582;5.298;2023-06-22T10:52:25;26.00;77.50
33827;DHT22;20128;45.582;5.298;2023-06-22T10:54:51;26.10;76.50
33827;DHT22;20128;45.582;5.298;2023-06-22T10:57:18;26.10;76.20
33827;DHT22;20128;45.582;5.298;2023-06-22T10:59:43;26.20;75.50
33827;DHT22;20128;45.582;5.298;2023-06-22T11:02:09;26.20;75.30
33827;DHT22;20128;45.582;5.298;2023-06-22T11:04:35;26.30;74.20
33827;DHT22;20128;45.582;5.298;2023-06-22T11:07:00;26.40;73.10
33827;DHT22;20128;45.582;5.298;2023-06-22T11:09:26;26.40;71.80
33827;DHT22;20128;45.582;5.298;2023-06-22T11:11:52;26.40;71.60
33827;DHT22;20128;45.582;5.298;2023-06-22T11:14:21;26.50;71.00
33827;DHT22;20128;45.582;5.298;2023-06-22T11:16:47;26.50;70.90
33827;DHT22;20128;45.582;5.298;2023-06-22T11:19:13;26.60;71.30
33827;DHT22;20128;45.582;5.298;2023-06-22T11:21:39;26.60;71.90
33827;DHT22;20128;45.582;5.298;2023-06-22T11:24:05;26.60;71.80
33827;DHT22;20128;45.582;5.298;2023-06-22T11:26:30;26.60;71.50
33827;DHT22;20128;45.582;5.298;2023-06-22T11:28:57;26.70;71.30
33827;DHT22;20128;45.582;5.298;2023-06-22T11:31:23;26.70;71.30
33827;DHT22;20128;45.582;5.298;2023-06-22T11:33:49;26.80;71.50
33827;DHT22;20128;45.582;5.298;2023-06-22T11:36:15;26.90;70.20
33827;DHT22;20128;45.582;5.298;2023-06-22T11:38:41;26.80;70.10
33827;DHT22;20128;45.582;5.298;2023-06-22T11:41:08;26.90;70.50
33827;DHT22;20128;45.582;5.298;2023-06-22T11:43:34;26.90;70.60
33827;DHT22;20128;45.582;5.298;2023-06-22T11:46:02;26.90;70.50
33827;DHT22;20128;45.582;5.298;2023-06-22T11:48:28;26.90;70.70
33827;DHT22;20128;45.582;5.298;2023-06-22T11:50:54;26.90;71.20
33827;DHT22;20128;45.582;5.298;2023-06-22T11:53:21;26.90;71.50
33827;DHT22;20128;45.582;5.298;2023-06-22T11:55:47;26.80;71.80
33827;DHT22;20128;45.582;5.298;2023-06-22T11:58:13;26.80;71.60
33827;DHT22;20128;45.582;5.298;2023-06-22T12:00:39;26.80;67.80
33827;DHT22;20128;45.582;5.298;2023-06-22T12:03:04;26.80;68.20
33827;DHT22;20128;45.582;5.298;2023-06-22T12:05:30;26.70;62.30
33827;DHT22;20128;45.582;5.298;2023-06-22T12:07:56;26.70;63.00
33827;DHT22;20128;45.582;5.298;2023-06-22T12:10:22;26.60;60.30
33827;DHT22;20128;45.582;5.298;2023-06-22T12:12:48;26.60;60.90
33827;DHT22;20128;45.582;5.298;2023-06-22T12:15:14;26.50;58.40
33827;DHT22;20128;45.582;5.298;2023-06-22T12:17:40;26.40;58.40
33827;DHT22;20128;45.582;5.298;2023-06-22T12:20:06;26.40;58.70
33827;DHT22;20128;45.582;5.298;2023-06-22T12:22:32;26.30;58.20
33827;DHT22;20128;45.582;5.298;2023-06-22T12:24:58;26.30;59.20
33827;DHT22;20128;45.582;5.298;2023-06-22T12:27:25;26.30;59.30
33827;DHT22;20128;45.582;5.298;2023-06-22T12:29:51;26.30;59.30
33827;DHT22;20128;45.582;5.298;2023-06-22T12:32:17;26.30;58.30
33827;DHT22;20128;45.582;5.298;2023-06-22T12:34:43;26.30;57.50
33827;DHT22;20128;45.582;5.298;2023-06-22T12:37:09;26.30;56.60
33827;DHT22;20128;45.582;5.298;2023-06-22T12:39:35;26.30;56.00
33827;DHT22;20128;45.582;5.298;2023-06-22T12:42:01;26.30;56.20
33827;DHT22;20128;45.582;5.298;2023-06-22T12:44:26;26.20;56.40
33827;DHT22;20128;45.582;5.298;2023-06-22T12:46:52;26.20;56.50
33827;DHT22;20128;45.582;5.298;2023-06-22T12:49:18;26.20;56.30
33827;DHT22;20128;45.582;5.298;2023-06-22T12:51:44;26.10;57.30
33827;DHT22;20128;45.582;5.298;2023-06-22T12:54:10;26.10;56.50
33827;DHT22;20128;45.582;5.298;2023-06-22T12:56:37;26.00;57.00
33827;DHT22;20128;45.582;5.298;2023-06-22T12:59:04;26.00;56.80
33827;DHT22;20128;45.582;5.298;2023-06-22T13:01:30;26.00;56.80
33827;DHT22;20128;45.582;5.298;2023-06-22T13:03:57;25.90;57.30
33827;DHT22;20128;45.582;5.298;2023-06-22T13:06:23;25.80;58.10
33827;DHT22;20128;45.582;5.298;2023-06-22T13:08:49;25.70;60.00
33827;DHT22;20128;45.582;5.298;2023-06-22T13:11:14;25.70;62.90
33827;DHT22;20128;45.582;5.298;2023-06-22T13:13:40;25.60;64.10
33827;DHT22;20128;45.582;5.298;2023-06-22T13:16:07;25.40;64.90
33827;DHT22;20128;45.582;5.298;2023-06-22T13:18:32;25.30;66.40
33827;DHT22;20128;45.582;5.298;2023-06-22T13:21:01;25.20;67.60
33827;DHT22;20128;45.582;5.298;2023-06-22T13:23:27;25.00;68.20
33827;DHT22;20128;45.582;5.298;2023-06-22T13:25:52;24.80;68.40
33827;DHT22;20128;45.582;5.298;2023-06-22T13:28:18;24.70;69.10
33827;DHT22;20128;45.582;5.298;2023-06-22T13:30:44;24.60;71.00
33827;DHT22;20128;45.582;5.298;2023-06-22T13:33:15;24.40;70.80
33827;DHT22;20128;45.582;5.298;2023-06-22T13:35:41;24.10;71.70
33827;DHT22;20128;45.582;5.298;2023-06-22T13:38:10;23.60;71.30
33827;DHT22;20128;45.582;5.298;2023-06-22T13:40:36;23.20;71.60
33827;DHT22;20128;45.582;5.298;2023-06-22T13:43:06;22.90;72.40
33827;DHT22;20128;45.582;5.298;2023-06-22T13:45:32;22.70;72.50
33827;DHT22;20128;45.582;5.298;2023-06-22T13:47:58;22.70;73.30
33827;DHT22;20128;45.582;5.298;2023-06-22T13:50:23;22.70;73.60
33827;DHT22;20128;45.582;5.298;2023-06-22T13:52:49;22.70;74.40
33827;DHT22;20128;45.582;5.298;2023-06-22T13:55:15;22.80;74.10
33827;DHT22;20128;45.582;5.298;2023-06-22T13:57:42;22.60;74.40
33827;DHT22;20128;45.582;5.298;2023-06-22T14:00:09;22.20;76.00
33827;DHT22;20128;45.582;5.298;2023-06-22T14:02:34;21.60;77.20
33827;DHT22;20128;45.582;5.298;2023-06-22T14:05:00;21.30;78.90
33827;DHT22;20128;45.582;5.298;2023-06-22T14:07:27;21.40;79.50
33827;DHT22;20128;45.582;5.298;2023-06-22T14:09:53;21.50;78.80
33827;DHT22;20128;45.582;5.298;2023-06-22T14:12:19;21.70;77.90
33827;DHT22;20128;45.582;5.298;2023-06-22T14:14:44;21.80;77.40
33827;DHT22;20128;45.582;5.298;2023-06-22T14:17:10;21.90;76.60
33827;DHT22;20128;45.582;5.298;2023-06-22T14:19:36;21.90;75.80
33827;DHT22;20128;45.582;5.298;2023-06-22T14:22:02;21.90;76.10
33827;DHT22;20128;45.582;5.298;2023-06-22T14:24:28;22.00;76.00
33827;DHT22;20128;45.582;5.298;2023-06-22T14:26:56;22.00;74.50
33827;DHT22;20128;45.582;5.298;2023-06-22T14:29:22;21.90;74.80
33827;DHT22;20128;45.582;5.298;2023-06-22T14:31:48;21.90;75.50
33827;DHT22;20128;45.582;5.298;2023-06-22T14:34:15;21.80;75.70
33827;DHT22;20128;45.582;5.298;2023-06-22T14:36:41;21.60;76.00
33827;DHT22;20128;45.582;5.298;2023-06-22T14:39:07;21.40;77.20
33827;DHT22;20128;45.582;5.298;2023-06-22T14:41:32;21.30;77.60
33827;DHT22;20128;45.582;5.298;2023-06-22T14:43:58;21.20;77.90
33827;DHT22;20128;45.582;5.298;2023-06-22T14:46:24;21.00;78.70
33827;DHT22;20128;45.582;5.298;2023-06-22T14:48:49;20.70;79.60
33827;DHT22;20128;45.582;5.298;2023-06-22T14:51:16;20.60;80.20
33827;DHT22;20128;45.582;5.298;2023-06-22T14:53:42;20.30;80.30
33827;DHT22;20128;45.582;5.298;2023-06-22T14:56:08;20.20;80.70
33827;DHT22;20128;45.582;5.298;2023-06-22T14:58:34;20.20;80.80
33827;DHT22;20128;45.582;5.298;2023-06-22T15:01:01;20.20;81.10
33827;DHT22;20128;45.582;5.298;2023-06-22T15:03:27;20.50;81.60
33827;DHT22;20128;45.582;5.298;2023-06-22T15:05:54;20.70;81.30
33827;DHT22;20128;45.582;5.298;2023-06-22T15:08:20;20.80;81.00
33827;DHT22;20128;45.582;5.298;2023-06-22T15:10:46;20.70;81.00
33827;DHT22;20128;45.582;5.298;2023-06-22T15:13:12;20.90;81.40
33827;DHT22;20128;45.582;5.298;2023-06-22T15:15:38;21.10;81.30
33827;DHT22;20128;45.582;5.298;2023-06-22T15:18:03;21.20;81.00
33827;DHT22;20128;45.582;5.298;2023-06-22T15:20:30;21.30;80.80
33827;DHT22;20128;45.582;5.298;2023-06-22T15:22:58;21.30;80.80
33827;DHT22;20128;45.582;5.298;2023-06-22T15:25:24;21.20;80.30
33827;DHT22;20128;45.582;5.298;2023-06-22T15:27:50;21.00;80.80